Time;durP1;ratioP1;P1;durP2;ratioP2;P2;SDS_P1;SDS_P2;PMS_P1;PMS_P2;Temp;Humidity;BMP_temperature;BMP_pressure;BME280_temperature;BME280_humidity;BME280_pressure;Samples;Min_cycle;Max_cycle;Signal;HPM_P1;HPM_P2
2022/05/13 00:04:20;;;;;;;0.00;0.00;;;;;;;9.55;100.00;101603.00;10365067;28;20394;-63
2022/05/13 00:09:21;;;;;;;0.00;0.00;;;;;;;9.62;100.00;101598.81;10351691;28;20261;-63
2022/05/13 00:14:22;;;;;;;0.00;0.00;;;;;;;9.61;100.00;101591.81;10347051;28;20117;-63
2022/05/13 00:19:22;;;;;;;0.03;0.03;;;;;;;9.55;100.00;101588.88;10360417;28;20021;-62
2022/05/13 00:24:22;;;;;;;0.10;0.10;;;;;;;9.48;100.00;101578.78;10355833;28;20025;-63
2022/05/13 00:29:23;;;;;;;0.00;0.00;;;;;;;9.42;100.00;101576.63;10355541;28;20028;-63
2022/05/13 00:34:24;;;;;;;0.00;0.00;;;;;;;9.38;100.00;101569.91;10363966;28;20030;-63
2022/05/13 00:39:25;;;;;;;0.00;0.00;;;;;;;9.33;100.00;101581.91;10363805;28;20030;-63
2022/05/13 00:44:25;;;;;;;0.00;0.00;;;;;;;9.29;100.00;101576.00;10369167;28;20497;-63
2022/05/13 00:49:26;;;;;;;0.00;0.00;;;;;;;9.25;100.00;101580.75;10347008;28;20507;-63
2022/05/13 00:54:28;;;;;;;0.03;0.03;;;;;;;9.21;100.00;101565.19;10370010;28;20588;-64
2022/05/13 00:59:32;;;;;;;0.00;0.00;;;;;;;9.15;100.00;101558.59;10360598;28;20022;-63
2022/05/13 01:04:34;;;;;;;0.00;0.00;;;;;;;9.14;100.00;101564.06;10332279;28;20165;-62
2022/05/13 01:09:38;;;;;;;0.00;0.00;;;;;;;9.10;100.00;101565.28;10349102;28;20452;-63
2022/05/13 01:14:45;;;;;;;0.00;0.00;;;;;;;9.06;100.00;101556.72;10369239;28;20022;-63
2022/05/13 01:19:45;;;;;;;0.00;0.00;;;;;;;8.99;100.00;101563.56;10370342;28;20044;-63
2022/05/13 01:24:46;;;;;;;0.00;0.00;;;;;;;8.93;100.00;101559.59;10352811;28;20030;-63
2022/05/13 01:29:48;;;;;;;0.08;0.08;;;;;;;8.86;100.00;101550.44;10345643;28;20037;-63
2022/05/13 01:34:49;;;;;;;0.00;0.00;;;;;;;8.82;100.00;101557.84;10342406;28;20028;-63
2022/05/13 01:39:49;;;;;;;0.00;0.00;;;;;;;8.84;100.00;101558.56;10339947;28;20118;-62
2022/05/13 01:44:49;;;;;;;0.00;0.00;;;;;;;8.80;100.00;101564.25;10370205;28;20260;-63
2022/05/13 01:49:50;;;;;;;0.00;0.00;;;;;;;8.78;100.00;101558.22;10361662;28;20033;-63
2022/05/13 01:54:51;;;;;;;0.00;0.00;;;;;;;8.77;100.00;101553.88;10337069;28;20482;-62
2022/05/13 01:59:51;;;;;;;0.00;0.00;;;;;;;8.81;100.00;101549.97;10363560;28;20156;-63
2022/05/13 02:04:51;;;;;;;0.00;0.00;;;;;;;8.85;100.00;101551.44;10334160;28;20265;-63
2022/05/13 02:09:51;;;;;;;0.00;0.00;;;;;;;8.88;100.00;101545.03;10336492;28;20426;-63
2022/05/13 02:14:52;;;;;;;0.00;0.00;;;;;;;8.90;100.00;101540.41;10331185;28;20077;-63
2022/05/13 02:19:52;;;;;;;0.00;0.00;;;;;;;8.91;100.00;101531.47;10376713;28;20064;-63
2022/05/13 02:24:52;;;;;;;0.00;0.00;;;;;;;8.92;100.00;101523.34;10377770;28;20022;-63
2022/05/13 02:29:53;;;;;;;0.00;0.00;;;;;;;8.94;100.00;101507.28;10341638;28;20026;-62
2022/05/13 02:34:53;;;;;;;0.10;0.10;;;;;;;8.94;100.00;101502.81;10363463;28;20054;-63
2022/05/13 02:39:54;;;;;;;0.10;0.10;;;;;;;8.96;100.00;101507.97;10347997;28;20026;-64
2022/05/13 02:44:54;;;;;;;0.00;0.00;;;;;;;9.02;100.00;101508.31;10376275;28;20040;-63
2022/05/13 02:55:14;;;;;;;0.00;0.00;;;;;;;9.25;100.00;101494.81;10375861;28;20472;-63
2022/05/13 03:00:15;;;;;;;0.00;0.00;;;;;;;9.33;100.00;101487.03;10372868;28;20080;-63
2022/05/13 03:05:15;;;;;;;0.00;0.00;;;;;;;9.41;100.00;101483.69;10344672;28;20029;-63
2022/05/13 03:10:17;;;;;;;0.00;0.00;;;;;;;9.49;100.00;101482.03;10357023;28;20030;-63
2022/05/13 03:15:17;;;;;;;0.00;0.00;;;;;;;9.57;100.00;101468.06;10376390;28;20041;-63
2022/05/13 03:20:20;;;;;;;0.00;0.00;;;;;;;9.63;100.00;101464.88;10367077;28;20030;-63
2022/05/13 03:25:22;;;;;;;0.00;0.00;;;;;;;9.70;100.00;101470.47;10334274;28;20645;-63
2022/05/13 03:30:24;;;;;;;0.00;0.00;;;;;;;9.73;100.00;101462.22;10348466;28;20018;-63
2022/05/13 03:35:25;;;;;;;0.00;0.00;;;;;;;9.77;100.00;101452.97;10334854;28;20038;-63
2022/05/13 03:40:25;;;;;;;0.00;0.00;;;;;;;9.82;100.00;101449.91;10334943;28;20523;-63
2022/05/13 03:45:27;;;;;;;0.00;0.00;;;;;;;9.85;100.00;101446.97;10374829;28;20022;-64
2022/05/13 03:50:27;;;;;;;0.00;0.00;;;;;;;9.88;100.00;101438.69;10336562;28;20032;-63
2022/05/13 03:55:28;;;;;;;0.00;0.00;;;;;;;9.91;100.00;101431.25;10342591;28;20105;-64
2022/05/13 04:00:29;;;;;;;0.10;0.10;;;;;;;9.96;100.00;101426.38;10354340;28;20025;-63
2022/05/13 04:10:49;;;;;;;0.00;0.00;;;;;;;10.05;100.00;101430.00;10366534;28;20030;-64
2022/05/13 04:16:04;;;;;;;0.00;0.00;;;;;;;10.09;100.00;101422.56;10368011;28;20482;-63
2022/05/13 04:21:08;;;;;;;0.00;0.00;;;;;;;10.12;100.00;101424.94;10372445;28;20033;-63
2022/05/13 04:26:12;;;;;;;0.00;0.00;;;;;;;10.18;100.00;101427.91;10373183;28;20014;-63
2022/05/13 04:31:14;;;;;;;0.10;0.10;;;;;;;10.21;100.00;101429.44;10368327;28;20021;-63
2022/05/13 04:36:15;;;;;;;0.00;0.00;;;;;;;10.23;100.00;101430.13;10369963;28;20037;-63
2022/05/13 04:46:37;;;;;;;0.10;0.10;;;;;;;10.31;100.00;101445.44;10366342;28;20477;-63
2022/05/13 04:51:37;;;;;;;0.00;0.00;;;;;;;10.35;100.00;101446.81;10353380;28;20026;-63
2022/05/13 04:56:39;;;;;;;0.10;0.10;;;;;;;10.38;100.00;101443.88;10352699;28;20057;-64
2022/05/13 05:01:39;;;;;;;0.00;0.00;;;;;;;10.40;100.00;101448.06;10356923;28;20132;-64
2022/05/13 05:06:41;;;;;;;0.00;0.00;;;;;;;10.41;100.00;101456.91;10357973;22;20046;-63
2022/05/13 05:11:41;;;;;;;0.00;0.00;;;;;;;10.45;100.00;101473.47;10324863;28;20034;-63
2022/05/13 05:16:41;;;;;;;0.10;0.10;;;;;;;10.46;100.00;101475.97;10330545;28;20037;-62
2022/05/13 05:21:42;;;;;;;0.00;0.00;;;;;;;10.48;100.00;101468.69;10337016;28;20277;-62
2022/05/13 05:26:42;;;;;;;0.10;0.10;;;;;;;10.49;100.00;101465.03;10325215;28;20022;-62
2022/05/13 05:31:43;;;;;;;0.10;0.10;;;;;;;10.55;100.00;101458.28;10325880;28;20477;-62
2022/05/13 05:36:43;;;;;;;0.10;0.10;;;;;;;10.59;100.00;101463.19;10324034;28;20030;-60
2022/05/13 05:41:44;;;;;;;0.00;0.00;;;;;;;10.64;100.00;101457.41;10323808;28;20495;-62
2022/05/13 05:46:44;;;;;;;0.10;0.10;;;;;;;10.70;100.00;101459.50;10324772;28;20014;-62
2022/05/13 05:51:44;;;;;;;0.00;0.00;;;;;;;10.76;100.00;101461.63;10325042;28;20034;-62
2022/05/13 06:02:04;;;;;;;0.00;0.00;;;;;;;10.92;100.00;101449.50;10324966;28;20034;-61
2022/05/13 06:07:10;;;;;;;0.10;0.10;;;;;;;11.00;100.00;101436.28;10326206;28;20033;-61
2022/05/13 06:12:14;;;;;;;0.10;0.10;;;;;;;11.03;100.00;101435.97;10321058;28;20022;-63
2022/05/13 06:17:14;;;;;;;0.00;0.00;;;;;;;11.12;100.00;101432.44;10325018;28;20025;-62
2022/05/13 06:22:15;;;;;;;0.10;0.10;;;;;;;11.23;100.00;101442.91;10324307;28;20481;-61
2022/05/13 06:27:15;;;;;;;0.10;0.10;;;;;;;11.28;100.00;101453.94;10324179;28;20055;-61
2022/05/13 06:32:15;;;;;;;0.00;0.00;;;;;;;11.29;100.00;101455.63;10325512;28;20026;-62
2022/05/13 06:37:16;;;;;;;0.10;0.10;;;;;;;11.37;100.00;101457.53;10328550;28;20515;-62
2022/05/13 06:42:16;;;;;;;0.10;0.10;;;;;;;11.39;100.00;101452.91;10323599;28;20107;-62
2022/05/13 06:47:17;;;;;;;0.00;0.00;;;;;;;11.35;100.00;101472.03;10322022;28;20413;-63
2022/05/13 06:52:17;;;;;;;0.00;0.00;;;;;;;11.30;100.00;101469.81;10324055;28;20033;-62
2022/05/13 06:57:17;;;;;;;0.10;0.10;;;;;;;11.35;100.00;101475.53;10323306;28;20022;-60
2022/05/13 07:02:19;;;;;;;0.00;0.00;;;;;;;11.45;100.00;101483.47;10326629;28;20076;-62
2022/05/13 07:07:19;;;;;;;0.10;0.10;;;;;;;11.58;100.00;101486.66;10335426;28;20432;-62
2022/05/13 07:12:19;;;;;;;0.10;0.10;;;;;;;11.64;100.00;101486.03;10335307;28;20061;-63
2022/05/13 07:17:20;;;;;;;0.10;0.10;;;;;;;11.84;100.00;101478.75;10329977;28;20029;-60
2022/05/13 07:22:21;;;;;;;0.10;0.10;;;;;;;12.10;100.00;101476.19;10344773;28;20113;-62
2022/05/13 07:27:22;;;;;;;0.00;0.00;;;;;;;12.37;100.00;101480.59;10334189;28;20557;-61
2022/05/13 07:32:22;;;;;;;0.00;0.00;;;;;;;12.61;100.00;101490.63;10336639;28;20508;-62
2022/05/13 07:37:22;;;;;;;0.10;0.10;;;;;;;12.67;100.00;101498.00;10369662;28;20139;-62
2022/05/13 07:42:23;;;;;;;0.00;0.00;;;;;;;12.76;100.00;101496.22;10330238;28;20497;-62
2022/05/13 07:47:23;;;;;;;0.10;0.10;;;;;;;12.81;100.00;101499.28;10335091;28;20429;-63
2022/05/13 07:52:26;;;;;;;0.00;0.00;;;;;;;12.88;100.00;101507.50;10349142;28;20356;-61
2022/05/13 07:57:27;;;;;;;0.07;0.07;;;;;;;12.91;100.00;101508.03;10328560;28;20294;-62
2022/05/13 08:02:27;;;;;;;0.00;0.00;;;;;;;12.96;100.00;101509.38;10356558;28;20513;-62
2022/05/13 08:07:27;;;;;;;0.10;0.10;;;;;;;13.16;100.00;101504.66;10362696;28;20026;-62
2022/05/13 08:12:28;;;;;;;0.10;0.10;;;;;;;13.48;100.00;101510.19;10339464;28;20269;-63
2022/05/13 08:17:35;;;;;;;0.10;0.10;;;;;;;13.75;100.00;101524.31;10345228;28;20022;-63
2022/05/13 08:22:36;;;;;;;0.10;0.10;;;;;;;14.02;100.00;101526.75;10350927;28;20381;-62
2022/05/13 08:27:36;;;;;;;0.10;0.10;;;;;;;14.22;100.00;101515.69;10368547;28;20021;-63
2022/05/13 08:32:37;;;;;;;0.03;0.03;;;;;;;14.44;100.00;101511.53;10342639;28;20089;-63
2022/05/13 08:37:46;;;;;;;0.10;0.10;;;;;;;14.71;100.00;101527.28;10327517;28;20057;-64
2022/05/13 08:42:47;;;;;;;0.10;0.10;;;;;;;14.78;100.00;101532.84;10342334;28;20037;-62
2022/05/13 08:47:49;;;;;;;0.10;0.10;;;;;;;14.91;100.00;101540.34;10356173;28;20021;-62
2022/05/13 08:53:11;;;;;;;0.10;0.10;;;;;;;15.20;99.39;101531.72;10360140;28;20022;-62
2022/05/13 08:58:19;;;;;;;0.10;0.10;;;;;;;15.48;97.20;101544.72;10328303;28;20485;-62
2022/05/13 09:03:36;;;;;;;0.10;0.10;;;;;;;15.44;96.09;101544.22;10367773;28;20072;-63
2022/05/13 09:08:36;;;;;;;0.15;0.15;;;;;;;15.59;97.75;101547.88;10345889;28;20438;-61
2022/05/13 09:14:05;;;;;;;0.10;0.10;;;;;;;15.91;97.28;101545.22;10331046;28;20028;-63
2022/05/13 09:19:09;;;;;;;0.10;0.10;;;;;;;15.74;93.62;101539.94;10354028;28;20281;-63
2022/05/13 09:24:10;;;;;;;0.10;0.10;;;;;;;15.58;93.18;101556.09;10350345;28;20156;-63
2022/05/13 09:29:13;;;;;;;0.10;0.10;;;;;;;15.82;96.04;101556.03;10350186;28;20438;-63
2022/05/13 09:34:34;;;;;;;0.10;0.10;;;;;;;16.01;94.78;101553.91;10330981;28;20034;-63
2022/05/13 09:39:43;;;;;;;0.00;0.00;;;;;;;15.77;92.07;101550.34;10351240;28;20026;-63
2022/05/13 09:44:43;;;;;;;0.10;0.10;;;;;;;15.54;91.54;101533.28;10340847;28;20092;-63
2022/05/13 09:49:47;;;;;;;0.10;0.10;;;;;;;15.72;95.94;101535.75;10331861;28;20563;-63
2022/05/13 09:54:48;;;;;;;0.10;0.10;;;;;;;15.82;92.50;101531.84;10347211;28;20424;-62
2022/05/13 09:59:55;;;;;;;0.10;0.10;;;;;;;15.53;92.57;101550.38;10336221;28;20037;-63
2022/05/13 10:05:15;;;;;;;0.10;0.10;;;;;;;14.66;100.00;101561.84;10365831;28;20026;-63
2022/05/13 10:15:40;;;;;;;0.10;0.10;;;;;;;14.37;100.00;101556.06;10328930;28;20470;-63
2022/05/13 10:20:44;;;;;;;0.10;0.10;;;;;;;14.30;100.00;101566.63;10329098;28;20030;-64
2022/05/13 10:26:01;;;;;;;0.10;0.10;;;;;;;14.38;100.00;101553.25;10357588;28;20022;-64
2022/05/13 10:31:10;;;;;;;0.10;0.10;;;;;;;14.40;100.00;101561.97;10364099;28;20025;-63
2022/05/13 10:36:18;;;;;;;0.17;0.17;;;;;;;14.50;100.00;101573.34;10362527;28;20037;-64
2022/05/13 10:41:22;;;;;;;0.10;0.10;;;;;;;14.53;100.00;101571.38;10357000;28;20026;-64
2022/05/13 10:46:28;;;;;;;0.00;0.00;;;;;;;14.63;100.00;101585.44;10374181;28;20026;-64
2022/05/13 10:51:42;;;;;;;0.10;0.10;;;;;;;15.45;100.00;101582.66;10375724;28;20104;-63
2022/05/13 10:56:53;;;;;;;0.10;0.10;;;;;;;15.36;97.65;101603.31;10336962;28;20027;-63
2022/05/13 11:02:25;;;;;;;0.10;0.10;;;;;;;14.90;98.97;101593.16;10333482;28;20034;-63
2022/05/13 11:07:37;;;;;;;0.10;0.10;;;;;;;15.51;98.19;101595.41;10366998;22;20077;-66
2022/05/13 11:13:12;;;;;;;0.10;0.10;;;;;;;16.57;95.59;101589.44;10402396;28;20037;-66
2022/05/13 11:18:31;;;;;;;0.10;0.10;;;;;;;17.60;90.16;101586.13;10412366;28;20029;-66
2022/05/13 11:29:34;;;;;;;0.10;0.10;;;;;;;17.01;89.52;101601.38;10415201;28;20022;-66
2022/05/13 11:35:01;;;;;;;0.10;0.10;;;;;;;16.69;91.10;101596.06;10413362;28;20033;-66
2022/05/13 11:40:07;;;;;;;0.10;0.10;;;;;;;17.15;91.25;101593.34;10410731;28;20080;-66
2022/05/13 11:45:16;;;;;;;0.10;0.10;;;;;;;17.72;84.44;101602.66;10413852;28;20029;-66
2022/05/13 11:50:17;;;;;;;0.10;0.10;;;;;;;18.04;81.18;101603.28;10414188;28;20029;-66
2022/05/13 11:55:47;;;;;;;0.10;0.10;;;;;;;17.55;78.57;101614.63;10386610;28;20392;-66
2022/05/13 12:00:48;;;;;;;0.10;0.10;;;;;;;17.22;82.30;101624.91;10372993;28;20038;-66
2022/05/13 12:06:00;;;;;;;0.15;0.15;;;;;;;17.48;84.67;101625.28;10371274;28;20608;-66
2022/05/13 12:11:00;;;;;;;0.10;0.10;;;;;;;18.01;83.03;101617.97;10386969;28;20044;-66
2022/05/13 12:16:06;;;;;;;0.10;0.10;;;;;;;17.63;84.08;101622.63;10396955;28;20121;-66
2022/05/13 12:21:16;;;;;;;0.10;0.10;;;;;;;17.25;84.26;101621.84;10411151;28;20034;-66
2022/05/13 12:26:22;;;;;;;0.10;0.10;;;;;;;16.72;85.36;101622.63;10411233;28;20048;-66
2022/05/13 12:31:22;;;;;;;0.10;0.10;;;;;;;16.46;87.22;101625.69;10411794;28;20112;-66
2022/05/13 12:42:06;;;;;;;0.10;0.10;;;;;;;15.85;89.76;101627.34;10409748;28;20404;-66
2022/05/13 12:47:13;;;;;;;0.10;0.10;;;;;;;15.84;93.63;101628.38;10410750;28;20025;-66
2022/05/13 12:52:15;;;;;;;0.10;0.10;;;;;;;16.07;90.58;101636.50;10410223;28;20111;-66
2022/05/13 12:57:22;;;;;;;0.10;0.10;;;;;;;16.42;90.71;101629.72;10369063;28;20025;-66
2022/05/13 13:02:27;;;;;;;0.10;0.10;;;;;;;16.20;89.19;101634.09;10369294;28;20468;-66
2022/05/13 13:07:30;;;;;;;0.10;0.10;;;;;;;16.09;91.05;101642.53;10369442;28;20030;-66
2022/05/13 13:12:46;;;;;;;0.17;0.17;;;;;;;16.00;91.15;101640.91;10396283;28;20113;-66
2022/05/13 13:17:58;;;;;;;0.10;0.10;;;;;;;15.70;91.84;101648.72;10408226;28;20021;-66
2022/05/13 13:23:01;;;;;;;0.10;0.10;;;;;;;15.64;94.41;101635.94;10410344;28;20053;-66
2022/05/13 13:28:05;;;;;;;0.10;0.10;;;;;;;16.03;93.65;101643.25;10409867;28;20376;-65
2022/05/13 13:33:08;;;;;;;0.10;0.10;;;;;;;16.11;91.34;101655.78;10409909;28;20041;-66
2022/05/13 13:38:12;;;;;;;0.10;0.10;;;;;;;16.06;91.23;101656.31;10408586;28;20063;-66
2022/05/13 13:43:15;;;;;;;0.10;0.10;;;;;;;16.32;91.90;101660.53;10406967;28;20584;-66
2022/05/13 13:48:22;;;;;;;0.10;0.10;;;;;;;16.99;91.78;101660.81;10367022;28;20029;-66
2022/05/13 13:54:00;;;;;;;0.10;0.10;;;;;;;17.34;86.69;101661.16;10326868;28;20062;-66
2022/05/13 13:59:08;;;;;;;0.10;0.10;;;;;;;17.47;86.41;101661.34;10333930;28;20030;-66
2022/05/13 14:04:13;;;;;;;0.10;0.10;;;;;;;17.30;86.88;101668.75;10366085;28;20071;-66
2022/05/13 14:09:23;;;;;;;0.10;0.10;;;;;;;17.10;84.68;101663.03;10366719;28;20022;-67
2022/05/13 14:14:24;;;;;;;0.10;0.10;;;;;;;16.87;87.08;101671.16;10340963;28;20018;-67
2022/05/13 14:19:29;;;;;;;0.10;0.10;;;;;;;16.94;90.02;101674.78;10339367;28;20018;-66
2022/05/13 14:24:38;;;;;;;0.10;0.10;;;;;;;17.39;84.35;101669.50;10332668;28;20034;-67
2022/05/13 14:29:39;;;;;;;0.10;0.10;;;;;;;17.19;84.42;101674.56;10333834;28;20014;-66
2022/05/13 14:34:40;;;;;;;0.10;0.10;;;;;;;16.87;84.81;101675.66;10331203;28;20022;-66
2022/05/13 14:39:49;;;;;;;0.10;0.10;;;;;;;16.57;84.92;101685.44;10335896;28;20057;-66
2022/05/13 14:44:55;;;;;;;0.10;0.10;;;;;;;16.27;86.65;101693.34;10334186;28;20640;-66
2022/05/13 14:50:05;;;;;;;0.10;0.10;;;;;;;16.09;87.97;101685.53;10333204;28;20018;-66
2022/05/13 14:55:15;;;;;;;0.00;0.00;;;;;;;16.00;88.52;101691.97;10333022;28;20022;-66
2022/05/13 15:00:30;;;;;;;0.10;0.10;;;;;;;15.95;90.83;101697.00;10367873;28;20118;-66
2022/05/13 15:05:42;;;;;;;0.10;0.10;;;;;;;15.84;93.36;101695.53;10333160;28;20528;-66
2022/05/13 15:10:42;;;;;;;0.10;0.10;;;;;;;15.86;93.66;101703.41;10357228;28;20030;-67
2022/05/13 15:15:43;;;;;;;0.10;0.10;;;;;;;15.90;95.13;101704.75;10329209;28;20025;-66
2022/05/13 15:20:44;;;;;;;0.10;0.10;;;;;;;16.33;93.07;101706.09;10329532;28;20048;-66
2022/05/13 15:25:46;;;;;;;0.10;0.10;;;;;;;16.51;89.50;101695.06;10332236;28;20382;-67
2022/05/13 15:30:46;;;;;;;0.10;0.10;;;;;;;16.35;91.38;101696.00;10331963;28;20018;-66
2022/05/13 15:35:47;;;;;;;0.10;0.10;;;;;;;16.08;91.76;101697.28;10332733;28;20029;-66
2022/05/13 15:40:47;;;;;;;0.00;0.00;;;;;;;15.70;92.69;101705.13;10360565;28;20485;-66
2022/05/13 15:45:53;;;;;;;0.10;0.10;;;;;;;15.38;96.51;101716.72;10413643;28;20025;-65
2022/05/13 15:56:21;;;;;;;0.05;0.05;;;;;;;15.28;100.00;101710.69;10413042;28;20096;-65
2022/05/13 16:01:21;;;;;;;0.10;0.10;;;;;;;15.30;100.00;101705.97;10413204;28;20032;-65
2022/05/13 16:06:22;;;;;;;0.10;0.10;;;;;;;15.20;100.00;101708.00;10412438;28;20037;-65
2022/05/13 16:11:27;;;;;;;0.00;0.00;;;;;;;15.06;100.00;101712.19;10410733;28;20088;-65
2022/05/13 16:16:37;;;;;;;0.10;0.10;;;;;;;15.02;100.00;101711.69;10411774;28;20018;-65
2022/05/13 16:21:40;;;;;;;0.10;0.10;;;;;;;15.21;100.00;101710.50;10411376;28;20206;-65
2022/05/13 16:26:42;;;;;;;0.10;0.10;;;;;;;15.35;99.06;101712.53;10411467;28;20502;-65
2022/05/13 16:31:43;;;;;;;0.10;0.10;;;;;;;15.55;97.42;101721.06;10411884;28;20029;-65
2022/05/13 16:42:02;;;;;;;0.10;0.10;;;;;;;15.42;95.65;101714.53;10408203;28;20439;-65
2022/05/13 16:47:04;;;;;;;0.10;0.10;;;;;;;15.28;96.94;101718.75;10410980;28;20056;-65
2022/05/13 16:52:05;;;;;;;0.10;0.10;;;;;;;15.24;96.82;101725.44;10411338;28;20036;-64
2022/05/13 16:57:05;;;;;;;0.10;0.10;;;;;;;15.36;95.66;101711.53;10410398;28;20109;-64
2022/05/13 17:02:09;;;;;;;0.10;0.10;;;;;;;15.34;97.10;101718.06;10411085;28;20437;-65
2022/05/13 17:07:12;;;;;;;0.00;0.00;;;;;;;15.28;96.71;101711.53;10384232;22;20058;-61
2022/05/13 17:17:31;;;;;;;0.10;0.10;;;;;;;15.19;97.04;101725.13;10364980;28;20029;-61
2022/05/13 17:22:31;;;;;;;0.10;0.10;;;;;;;15.04;99.21;101727.63;10366512;28;20030;-60
2022/05/13 17:27:39;;;;;;;0.10;0.10;;;;;;;-145.06;100.00;63404.56;10363988;28;20021;-62
2022/05/13 17:32:40;;;;;;;0.10;0.10;;;;;;;-145.06;100.00;63404.56;10364005;28;20030;-61
2022/05/13 17:37:46;;;;;;;0.10;0.10;;;;;;;-145.06;100.00;63404.56;10363964;28;20025;-62
2022/05/13 17:42:47;;;;;;;0.10;0.10;;;;;;;-145.06;100.00;63404.56;10365158;28;20029;-61
2022/05/13 17:47:47;;;;;;;0.10;0.10;;;;;;;-145.06;100.00;63404.56;10364536;28;20448;-61
2022/05/13 17:52:48;;;;;;;0.00;0.00;;;;;;;-145.06;100.00;63404.56;10364660;28;20105;-62
2022/05/13 17:57:49;;;;;;;0.10;0.10;;;;;;;-145.06;100.00;63404.56;10365946;28;20040;-61
2022/05/13 18:02:49;;;;;;;0.10;0.10;;;;;;;-145.06;100.00;63404.56;10364551;28;20041;-62
2022/05/13 18:07:50;;;;;;;0.10;0.10;;;;;;;-145.06;100.00;63404.56;10364021;28;20053;-62
2022/05/13 18:12:50;;;;;;;0.10;0.10;;;;;;;-145.06;100.00;63404.56;10363655;28;20026;-61
2022/05/13 18:17:51;;;;;;;0.10;0.10;;;;;;;-145.06;100.00;63404.56;10363445;28;20036;-60
2022/05/13 18:22:51;;;;;;;0.10;0.10;;;;;;;-145.06;100.00;63404.56;10364505;28;20030;-60
2022/05/13 18:27:51;;;;;;;0.10;0.10;;;;;;;-145.06;100.00;63404.56;10361067;28;20137;-64
2022/05/13 18:32:52;;;;;;;0.10;0.10;;;;;;;-145.06;100.00;63404.56;10362462;28;20022;-64
2022/05/13 18:37:52;;;;;;;0.10;0.10;;;;;;;-145.06;100.00;63404.56;10361102;28;20030;-64
2022/05/13 18:48:11;;;;;;;0.10;0.10;;;;;;;-145.06;100.00;63404.56;10361058;28;20104;-64
2022/05/13 18:53:12;;;;;;;0.10;0.10;;;;;;;-145.06;100.00;63404.56;10361775;28;20109;-64
2022/05/13 18:58:12;;;;;;;0.10;0.10;;;;;;;-145.06;100.00;63404.56;10344130;28;20033;-64
2022/05/13 19:03:12;;;;;;;0.00;0.00;;;;;;;-145.06;100.00;63404.56;10328674;28;20026;-64
2022/05/13 19:08:13;;;;;;;0.10;0.10;;;;;;;-145.06;100.00;63404.56;10360163;28;20018;-63
2022/05/13 19:13:18;;;;;;;0.10;0.10;;;;;;;-145.06;100.00;63404.56;10363847;28;20425;-64
2022/05/13 19:18:26;;;;;;;0.10;0.10;;;;;;;-145.06;100.00;63404.56;10368201;28;20025;-64
2022/05/13 19:23:27;;;;;;;0.10;0.10;;;;;;;-145.06;100.00;63404.56;10367984;28;20068;-64
2022/05/13 19:28:29;;;;;;;0.10;0.10;;;;;;;-145.06;100.00;63404.56;10367233;28;20050;-64
2022/05/13 19:33:29;;;;;;;0.10;0.10;;;;;;;-145.06;100.00;63404.56;10368464;28;20038;-64
2022/05/13 19:38:30;;;;;;;0.10;0.10;;;;;;;-145.06;100.00;63404.56;10366526;28;20453;-64
2022/05/13 19:43:30;;;;;;;0.10;0.10;;;;;;;-145.06;100.00;63404.56;10367590;28;20048;-65
2022/05/13 19:48:32;;;;;;;0.10;0.10;;;;;;;-145.06;100.00;63404.56;10367876;28;20060;-64
2022/05/13 19:53:33;;;;;;;0.00;0.00;;;;;;;-145.06;100.00;63404.56;10366822;28;20022;-64
2022/05/13 19:58:33;;;;;;;0.10;0.10;;;;;;;-145.06;100.00;63404.56;10367280;28;20372;-65
2022/05/13 20:03:34;;;;;;;0.10;0.10;;;;;;;-145.06;100.00;63404.56;10366348;28;20030;-65
2022/05/13 20:13:53;;;;;;;0.00;0.00;;;;;;;-145.06;100.00;63404.56;10367167;28;20481;-63
2022/05/13 20:18:53;;;;;;;0.10;0.10;;;;;;;-145.06;100.00;63404.56;10366324;28;20018;-63
2022/05/13 20:23:54;;;;;;;0.10;0.10;;;;;;;-145.06;100.00;63404.56;10365430;28;20030;-64
2022/05/13 20:28:58;;;;;;;0.03;0.03;;;;;;;-145.06;100.00;63404.56;10366031;28;20026;-64
2022/05/13 20:33:59;;;;;;;0.10;0.10;;;;;;;-145.06;100.00;63404.56;10365427;28;20025;-64
2022/05/13 20:38:59;;;;;;;0.10;0.10;;;;;;;-145.06;100.00;63404.56;10365822;28;20029;-63
2022/05/13 20:43:59;;;;;;;0.10;0.10;;;;;;;-145.06;100.00;63404.56;10364613;28;20085;-63
2022/05/13 20:49:00;;;;;;;0.00;0.00;;;;;;;-145.06;100.00;63404.56;10365436;28;20037;-63
2022/05/13 20:54:04;;;;;;;0.10;0.10;;;;;;;-145.06;100.00;63404.56;10364959;28;20124;-61
2022/05/13 20:59:06;;;;;;;0.10;0.10;;;;;;;-145.06;100.00;63404.56;10364897;28;20022;-63
2022/05/13 21:04:12;;;;;;;0.10;0.10;;;;;;;-145.06;100.00;63404.56;10364282;28;20026;-63
2022/05/13 21:09:12;;;;;;;0.03;0.03;;;;;;;-145.06;100.00;63404.56;10365194;28;20021;-63
2022/05/13 21:14:13;;;;;;;0.10;0.10;;;;;;;-145.06;100.00;63404.56;10364074;28;20033;-64
2022/05/13 21:19:13;;;;;;;0.00;0.00;;;;;;;-145.06;100.00;63404.56;10363340;28;20029;-63
2022/05/13 21:24:13;;;;;;;0.00;0.00;;;;;;;-145.06;100.00;63404.56;10362494;28;20030;-64
2022/05/13 21:29:14;;;;;;;0.10;0.10;;;;;;;-145.06;100.00;63404.56;10364798;28;20022;-60
2022/05/13 21:39:33;;;;;;;0.10;0.10;;;;;;;-145.06;100.00;63404.56;10364375;28;20022;-62
2022/05/13 21:44:34;;;;;;;0.10;0.10;;;;;;;-145.06;100.00;63404.56;10362385;28;20030;-61
2022/05/13 21:49:34;;;;;;;0.10;0.10;;;;;;;-145.06;100.00;63404.56;10364133;28;20098;-63
2022/05/13 21:54:41;;;;;;;0.00;0.00;;;;;;;-145.06;100.00;63404.56;10361015;28;20080;-62
2022/05/13 21:59:42;;;;;;;0.10;0.10;;;;;;;-145.06;100.00;63404.56;10363241;28;20628;-62
2022/05/13 22:04:43;;;;;;;0.10;0.10;;;;;;;-145.06;100.00;63404.56;10362037;28;20045;-61
2022/05/13 22:09:44;;;;;;;0.10;0.10;;;;;;;-145.06;100.00;63404.56;10363729;28;20080;-63
2022/05/13 22:14:44;;;;;;;0.00;0.00;;;;;;;-145.06;100.00;63404.56;10363327;28;20377;-60
2022/05/13 22:19:45;;;;;;;0.08;0.08;;;;;;;-145.06;100.00;63404.56;10363586;28;20024;-62
2022/05/13 22:24:45;;;;;;;0.00;0.00;;;;;;;-145.06;100.00;63404.56;10363680;28;20479;-63
2022/05/13 22:29:46;;;;;;;0.07;0.07;;;;;;;-145.06;100.00;63404.56;10363016;28;20022;-61
2022/05/13 22:34:46;;;;;;;0.00;0.00;;;;;;;-145.06;100.00;63404.56;10369166;28;20339;-63
2022/05/13 22:39:46;;;;;;;0.10;0.10;;;;;;;-145.06;100.00;63404.56;10369688;28;20021;-63
2022/05/13 22:44:47;;;;;;;0.00;0.00;;;;;;;-145.06;100.00;63404.56;10367952;28;20520;-63
2022/05/13 22:49:47;;;;;;;0.10;0.10;;;;;;;-145.06;100.00;63404.56;10370428;28;20025;-63
2022/05/13 22:54:47;;;;;;;0.00;0.00;;;;;;;-145.06;100.00;63404.56;10369751;28;20030;-62
2022/05/13 22:59:48;;;;;;;0.10;0.10;;;;;;;-145.06;100.00;63404.56;10369747;28;20057;-63
2022/05/13 23:15:16;;;;;;;0.00;0.00;;;;;;;-145.06;100.00;63404.56;10283149;28;20049;-92
2022/05/13 23:20:18;;;;;;;0.00;0.00;;;;;;;-145.06;100.00;63404.56;10260672;28;20056;-91
2022/05/13 23:25:18;;;;;;;0.00;0.00;;;;;;;-145.06;100.00;63404.56;10255567;28;20035;-92
2022/05/13 23:30:18;;;;;;;0.10;0.10;;;;;;;-145.06;100.00;63404.56;10253226;28;20035;-91
2022/05/13 23:35:19;;;;;;;0.10;0.10;;;;;;;-145.06;100.00;63404.56;10259260;28;20354;-92
2022/05/13 23:40:20;;;;;;;0.10;0.10;;;;;;;-145.06;100.00;63404.56;10264603;28;20033;-91
2022/05/13 23:45:21;;;;;;;0.00;0.00;;;;;;;-145.06;100.00;63404.56;10262425;28;20296;-92
2022/05/13 23:50:21;;;;;;;0.00;0.00;;;;;;;-145.06;100.00;63404.56;10256848;28;20506;-91
